Orange City, FL

12:49 PM EST on February 10, 2016 (GMT -0500)
Pine Crest Estates | | Change Station
CLOSE
Current Station
Personal Weather Station
Location: Orange City, FL
Elevation: 72 ft
Nearby Weather Stations
Active Advisory: Lake Wind Advisory

Elev 72 ft 28.96 °N, 81.30 °W | Updated 24 seconds ago

Clear
Clear
56.7 °F
Feels Like 56.7 °F
N
2.0
Wind Variable Wind from SSW
Gusts 2.5 mph

Today
High -- | Low -- °F
--% Chance of Precip.
Yesterday
High -- | Low -- °F
Precip. -- in
Pressure 30.21 in
Visibility 10.0 miles
Clouds Clear
Dew Point 23 °F
Humidity 27%
Rainfall 0.00 in
Snow Depth Not available.
7:08 AM 6:11 PM
Waxing Crescent, 6% visible
METAR KSFB 101653Z 30016G29KT 10SM CLR 13/M06 A3021 RMK AO2 PK WND 29029/1647 RAB48E52 SLP229 P0000 T01331056
Pressure 30.21 in
Visibility 10.0 miles
Clouds Clear
Dew Point 23 °F
Humidity 27%
Rainfall 0.00 in
Snow Depth Not available.
7:08 AM 6:11 PM
Waxing Crescent, 6% visible
METAR KSFB 101653Z 30016G29KT 10SM CLR 13/M06 A3021 RMK AO2 PK WND 29029/1647 RAB48E52 SLP229 P0000 T01331056

10-Day Weather Forecast

Almanac

Astronomy

Feb. 10, 2016 Rise Set
Actual Time
Civil Twilight
Nautical Twilight
Astronomical Twilight
Moon
Length of Visible Light
Length of Day
Tomorrow will be .
, % of the Moon is Illuminated

Today's Extremes

State Highs State Lows

Community

WunderPhotos

Upload Photos

1,891,899 photos uploaded!

WunderBlog® & News

Nearby

Air Quality

  Air Quality AQ Index Pollutant
Not available.

Snow Depth

Station Depth Elevation

Earthquake Activity

City Distance Mag. Time & Date
Minimum magnitude displayed is 2.5.

Coastal Water Temperatures

Place Temperature

Stations

Nearby Weather Stations

Station Location Temp. Windchill Dew Point Humidity Wind Precip. Elev Updated Type
                   

Watches & Warnings

Lake Wind Advisory
Issued: 3:40 AM EST Feb. 10, 2016 – National Weather Service

... Lake Wind Advisory in effect from noon today to 6 PM EST this
evening...

The National Weather Service in Melbourne has issued a lake Wind
Advisory... which is in effect from noon today to 6 PM EST this
evening.

* Winds... increasing to 20 mph out of the west to northwest this
afternoon with gusts to around 30 mph.

* Impacts... choppy conditions on Open Lakes and other larger
bodies of water will make operation of small boats potentially
hazardous.

Precautionary/preparedness actions...

A lake Wind Advisory indicates that winds will cause rough chop
on area lakes. Small boats will be especially prone to capsizing.